KMYV/MYV METAR and TAF weather

Enter ICAO airport designator
Station Type Date Time Source
KMYV METAR 2021/02/27 09:53 UTC NOAA

KMYV 270953Z AUTO 34016KT 10SM CLR 08/M03 A3010 RMK AO2 SLP195 T00831028


Station Type Date Time Source
KMYV Decoded METAR 2021/02/27 09:53 UTC NOAA

MARYSVILLE YUBA COUNTY, CA, United States (KMYV) 39-06N 121-34W 21M
Feb 27, 2021 - 04:53 AM EST / 2021.02.27 0953 UTC
Wind: from the NNW (340 degrees) at 18 MPH (16 KT):0
Visibility: 10 mile(s):0
Sky conditions: clear
Temperature: 46.9 F (8.3 C)
Dew Point: 27.0 F (-2.8 C)
Relative Humidity: 45%
Pressure (altimeter): 30.1 in. Hg (1019 hPa)
ob: KMYV 270953Z AUTO 34016KT 10SM CLR 08/M03 A3010 RMK AO2 SLP195 T00831028
cycle: 10

Station Type Date Time Source
KMYV TAF UTC NOAA

Error!

Example: see airport list